Hierro Island, Spain
Current Conditions -  °F | °C
As of 3:00 PM on Monday 24 Nov 2014 (Local Time) from GCGM Reporting Station
Few Clouds Few Clouds  
Wind Chill: 70°   Ceiling: Unl
Heat Index: 70°   Visibility: 6mi
Dew Point: 54°   Wind: 8mph
Humidity: 56%   Direction: NA
Pressure: 30.18"   Gusts: 24mph
Location:  27.82°N, 17.88°W
Report Text: GCGM 241500Z VRB07G21KT 9999 FEW038 21/12 Q1022 RMK CAB09VRB03KT
Loading
Personal Weather Stations






























Interactive Weather Map New forecast layout! Learn more

10-Day Weather Forecast

Advertisements
Track Severe Weather on mobile